createdAt,value
2022-08-16T00:00:04.116Z,12.90
2022-08-16T00:05:10.946Z,13.77
2022-08-16T00:10:20.739Z,12.97
2022-08-16T00:15:51.069Z,10.70
2022-08-16T00:20:54.097Z,13.50
2022-08-16T00:26:33.321Z,13.30
2022-08-16T00:31:17.695Z,10.20
2022-08-16T00:36:26.804Z,9.43
2022-08-16T00:41:31.990Z,12.07
2022-08-16T00:47:09.909Z,11.33
2022-08-16T00:52:29.472Z,11.17
2022-08-16T00:57:44.542Z,9.80
2022-08-16T01:02:57.604Z,9.40
2022-08-16T01:07:59.771Z,12.83
2022-08-16T01:13:15.157Z,10.40
2022-08-16T01:18:40.659Z,9.83
2022-08-16T01:24:54.014Z,11.30
2022-08-16T01:30:21.888Z,14.60
2022-08-16T01:35:44.065Z,14.13
2022-08-16T01:40:47.621Z,16.00
2022-08-16T01:45:57.764Z,13.20
2022-08-16T01:51:09.465Z,11.53
2022-08-16T01:56:24.900Z,11.93
2022-08-16T02:01:28.131Z,11.77
2022-08-16T02:06:34.593Z,11.60
2022-08-16T02:11:48.110Z,11.77
2022-08-16T02:16:58.433Z,14.50
2022-08-16T02:22:09.095Z,14.47
2022-08-16T02:27:25.956Z,16.77
2022-08-16T02:32:50.235Z,15.00
2022-08-16T02:37:52.369Z,14.30
2022-08-16T02:42:55.807Z,17.03
2022-08-16T02:48:01.655Z,15.20
2022-08-16T02:53:23.554Z,16.83
2022-08-16T02:58:26.381Z,18.20
2022-08-16T03:04:39.426Z,17.27
2022-08-16T03:08:53.249Z,17.80
2022-08-16T03:13:56.638Z,17.70
2022-08-16T03:18:58.660Z,14.23
2022-08-16T03:24:03.970Z,14.30
2022-08-16T03:29:05.908Z,16.10
2022-08-16T03:34:09.329Z,19.93
2022-08-16T03:39:15.094Z,16.10
2022-08-16T03:44:43.635Z,19.10
2022-08-16T03:49:44.693Z,16.13
2022-08-16T03:54:53.627Z,16.50
2022-08-16T04:00:00.098Z,18.80
2022-08-16T04:05:01.986Z,20.20
2022-08-16T04:10:35.982Z,17.40
2022-08-16T04:15:32.373Z,17.90
2022-08-16T04:20:37.067Z,17.90
2022-08-16T04:25:39.189Z,19.50
2022-08-16T04:30:42.474Z,19.00
2022-08-16T04:35:49.441Z,14.90
2022-08-16T04:40:51.993Z,15.50
2022-08-16T04:46:00.914Z,17.87
2022-08-16T04:51:07.901Z,16.03
2022-08-16T04:56:14.245Z,17.60
2022-08-16T05:01:18.937Z,17.37
2022-08-16T05:06:20.863Z,17.47
2022-08-16T05:11:42.602Z,20.70
2022-08-16T05:16:44.618Z,18.03
2022-08-16T05:21:46.398Z,16.90
2022-08-16T05:26:51.599Z,14.00
2022-08-16T05:31:54.344Z,15.83
2022-08-16T05:36:57.440Z,13.90
2022-08-16T05:42:00.557Z,17.93
2022-08-16T05:47:02.469Z,17.27
2022-08-16T05:52:11.789Z,14.17
2022-08-16T05:57:18.746Z,16.10
2022-08-16T06:02:24.602Z,17.43
2022-08-16T06:07:32.170Z,15.03
2022-08-16T06:12:34.034Z,14.47
2022-08-16T06:17:43.246Z,13.53
2022-08-16T06:22:57.570Z,14.70
2022-08-16T06:28:01.209Z,12.13
2022-08-16T06:33:12.395Z,10.63
2022-08-16T06:38:33.039Z,12.10
2022-08-16T06:43:36.744Z,11.40
2022-08-16T06:48:42.695Z,12.57
2022-08-16T06:53:45.008Z,15.97
2022-08-16T06:58:46.823Z,12.73
2022-08-16T07:03:55.269Z,12.10
2022-08-16T07:08:59.613Z,12.30
2022-08-16T07:14:24.256Z,13.63
2022-08-16T07:19:33.479Z,16.07
2022-08-16T07:24:45.974Z,16.60
2022-08-16T07:29:48.271Z,18.80
2022-08-16T07:34:50.263Z,15.10
2022-08-16T07:39:54.787Z,12.43
2022-08-16T07:44:58.020Z,14.50
2022-08-16T07:50:05.311Z,19.93
2022-08-16T07:55:13.933Z,10.47
2022-08-16T08:00:18.411Z,14.70
2022-08-16T08:05:35.345Z,12.03
2022-08-16T08:10:38.874Z,12.47
2022-08-16T08:15:40.586Z,14.30
2022-08-16T08:20:59.295Z,9.40
2022-08-16T08:26:02.022Z,13.63
2022-08-16T08:31:04.353Z,10.60
2022-08-16T08:36:08.350Z,12.43
2022-08-16T08:41:11.243Z,12.00
2022-08-16T08:46:18.280Z,9.07
2022-08-16T08:51:25.377Z,9.13
2022-08-16T08:56:34.897Z,9.27
2022-08-16T09:01:42.579Z,8.97
2022-08-16T09:06:45.561Z,7.37
2022-08-16T09:11:53.524Z,7.20
2022-08-16T09:17:03.849Z,7.23
2022-08-16T09:22:19.797Z,9.70
2022-08-16T09:27:25.356Z,8.73
2022-08-16T09:32:31.515Z,6.20
2022-08-16T09:37:36.799Z,11.10
2022-08-16T09:42:55.994Z,6.90
2022-08-16T09:48:00.547Z,7.83
2022-08-16T09:53:06.840Z,6.40
2022-08-16T09:58:10.614Z,6.20
2022-08-16T10:03:12.904Z,7.37
2022-08-16T10:08:26.754Z,6.40
2022-08-16T10:13:31.318Z,6.70
2022-08-16T10:19:00.733Z,6.10
2022-08-16T10:23:56.781Z,7.77
2022-08-16T10:28:58.514Z,9.30
2022-08-16T10:34:01.615Z,6.23
2022-08-16T10:39:05.287Z,6.03
2022-08-16T10:44:10.522Z,6.13
2022-08-16T10:49:16.659Z,8.90
2022-08-16T10:54:29.153Z,5.23
2022-08-16T10:59:47.038Z,5.60
2022-08-16T11:05:11.864Z,6.63
2022-08-16T11:10:20.375Z,5.90
2022-08-16T11:15:24.495Z,5.83
2022-08-16T11:20:49.116Z,8.40
2022-08-16T11:26:07.491Z,7.00
2022-08-16T11:31:13.516Z,12.00
2022-08-16T11:36:24.799Z,8.00
2022-08-16T11:41:33.317Z,8.50
2022-08-16T11:46:44.973Z,6.43
2022-08-16T11:51:50.004Z,9.00
2022-08-16T11:56:57.293Z,11.00
2022-08-16T12:02:04.438Z,7.30
2022-08-16T12:07:23.763Z,6.63
2022-08-16T12:12:25.860Z,7.70
2022-08-16T12:17:32.434Z,5.50
2022-08-16T12:22:36.693Z,9.60
2022-08-16T12:27:39.290Z,8.90
2022-08-16T12:32:42.175Z,7.87
2022-08-16T12:37:47.230Z,6.03
2022-08-16T12:42:53.609Z,18.37
2022-08-16T12:48:32.696Z,6.70
2022-08-16T12:53:39.852Z,6.50
2022-08-16T12:58:50.354Z,4.13
2022-08-16T13:04:20.800Z,5.07
2022-08-16T13:09:26.055Z,6.07
2022-08-16T13:14:41.308Z,4.97
2022-08-16T13:25:09.028Z,6.03
2022-08-16T13:30:36.501Z,6.20
2022-08-16T13:35:35.021Z,6.77
2022-08-16T13:40:36.838Z,5.40
2022-08-16T13:45:44.642Z,4.60
2022-08-16T13:50:49.960Z,5.00
2022-08-16T13:55:59.017Z,4.70
2022-08-16T14:01:03.232Z,5.43
2022-08-16T14:06:05.434Z,4.70
2022-08-16T14:11:11.751Z,5.43
2022-08-16T14:16:24.116Z,5.50
2022-08-16T14:21:35.174Z,4.90
2022-08-16T14:26:37.295Z,3.43
2022-08-16T14:31:39.712Z,4.27
2022-08-16T14:36:42.793Z,5.07
2022-08-16T14:41:45.198Z,3.90
2022-08-16T14:46:47.101Z,4.13
2022-08-16T14:51:48.956Z,4.80
2022-08-16T14:56:54.838Z,3.83
2022-08-16T15:02:00.524Z,5.43
2022-08-16T15:07:02.680Z,5.00
2022-08-16T15:12:27.162Z,5.40
2022-08-16T15:17:37.303Z,5.13
2022-08-16T15:22:45.987Z,8.03
2022-08-16T15:27:55.459Z,4.00
2022-08-16T15:33:08.288Z,3.50
2022-08-16T15:38:56.783Z,4.77
2022-08-16T15:43:39.950Z,4.57
2022-08-16T15:48:42.214Z,4.60
2022-08-16T15:53:46.605Z,4.23
2022-08-16T15:59:07.553Z,4.50
2022-08-16T16:04:10.119Z,4.50
2022-08-16T16:09:12.098Z,3.80
2022-08-16T16:14:16.463Z,3.83
2022-08-16T16:19:21.249Z,4.60
2022-08-16T16:24:24.028Z,4.13
2022-08-16T16:29:36.991Z,5.40
2022-08-16T16:34:43.072Z,4.93
2022-08-16T16:39:45.214Z,4.67
2022-08-16T16:44:50.896Z,5.30
2022-08-16T16:49:53.848Z,4.37
2022-08-16T16:54:57.442Z,4.47
2022-08-16T16:59:59.222Z,4.50
2022-08-16T17:05:08.481Z,5.90
2022-08-16T17:10:11.001Z,8.73
2022-08-16T17:15:14.867Z,3.33
2022-08-16T17:20:18.451Z,4.20
2022-08-16T17:25:22.920Z,4.00
2022-08-16T17:30:44.936Z,8.13
2022-08-16T17:35:54.925Z,5.27
2022-08-16T17:40:59.501Z,8.20
2022-08-16T17:46:03.292Z,4.20
2022-08-16T17:51:06.785Z,17.10
2022-08-16T17:56:10.306Z,5.13
2022-08-16T18:01:13.184Z,4.33
2022-08-16T18:06:16.650Z,4.63
2022-08-16T18:11:26.037Z,8.20
2022-08-16T18:16:28.347Z,6.07
2022-08-16T18:21:48.503Z,6.97
2022-08-16T18:26:50.925Z,6.40
2022-08-16T18:31:52.705Z,5.00
2022-08-16T18:36:54.439Z,13.23
2022-08-16T18:41:56.422Z,10.60
2022-08-16T18:46:58.148Z,10.90
2022-08-16T18:52:02.263Z,6.73
2022-08-16T18:57:07.836Z,8.33
2022-08-16T19:02:09.847Z,7.37
2022-08-16T19:07:31.788Z,7.90
2022-08-16T19:12:37.988Z,12.53
2022-08-16T19:17:46.112Z,9.77
2022-08-16T19:23:05.345Z,14.93
2022-08-16T19:28:08.609Z,8.37
2022-08-16T19:33:31.019Z,11.80
2022-08-16T19:38:32.770Z,10.93
2022-08-16T19:43:34.870Z,13.80
2022-08-16T19:48:37.323Z,10.73
2022-08-16T19:53:39.031Z,12.67
2022-08-16T19:58:56.048Z,9.83
2022-08-16T20:03:58.046Z,11.77
2022-08-16T20:09:03.459Z,10.40
2022-08-16T20:14:05.589Z,12.67
2022-08-16T20:19:07.399Z,13.03
2022-08-16T20:24:32.993Z,13.67
2022-08-16T20:29:30.991Z,9.97
2022-08-16T20:34:33.589Z,11.17
2022-08-16T20:39:35.380Z,14.33
2022-08-16T20:44:37.275Z,12.80
2022-08-16T20:49:39.010Z,22.97
2022-08-16T20:54:42.074Z,15.77
2022-08-16T20:59:49.849Z,11.50
2022-08-16T21:04:52.527Z,12.00
2022-08-16T21:09:54.278Z,10.33
2022-08-16T21:14:56.035Z,10.03
2022-08-16T21:19:57.825Z,9.37
2022-08-16T21:25:00.009Z,10.70
2022-08-16T21:30:02.103Z,10.17
2022-08-16T21:35:08.905Z,8.27
2022-08-16T21:40:12.381Z,7.83
2022-08-16T21:45:14.730Z,9.50
2022-08-16T21:50:16.875Z,25.17
2022-08-16T21:55:18.934Z,12.87
2022-08-16T22:00:20.809Z,8.00
2022-08-16T22:05:24.245Z,10.73
2022-08-16T22:11:04.089Z,10.23
2022-08-16T22:15:49.271Z,9.27
2022-08-16T22:20:51.377Z,11.00
2022-08-16T22:25:55.423Z,12.83
2022-08-16T22:30:57.254Z,9.50
2022-08-16T22:36:02.238Z,13.00
2022-08-16T22:41:05.372Z,12.50
2022-08-16T22:46:07.629Z,17.77
2022-08-16T22:51:09.462Z,10.40
2022-08-16T22:56:11.184Z,14.30
2022-08-16T23:01:15.055Z,12.57
2022-08-16T23:06:18.273Z,14.80
2022-08-16T23:11:25.540Z,10.53
2022-08-16T23:16:34.462Z,8.33
2022-08-16T23:21:43.742Z,9.70
2022-08-16T23:26:48.798Z,13.63
2022-08-16T23:31:53.353Z,13.10
2022-08-16T23:36:56.790Z,11.83
2022-08-16T23:41:58.752Z,11.50
2022-08-16T23:47:00.512Z,30.70
2022-08-16T23:52:11.951Z,9.60
2022-08-16T23:57:13.726Z,10.80
